createdAt,value
2018-01-06T00:02:36.951Z,2.77
2018-01-06T00:07:39.881Z,3.67
2018-01-06T00:12:43.179Z,3.33
2018-01-06T00:17:46.069Z,3.20
2018-01-06T00:22:51.245Z,3.87
2018-01-06T00:27:54.083Z,3.10
2018-01-06T00:32:57.482Z,4.87
2018-01-06T00:38:00.174Z,2.87
2018-01-06T00:43:03.205Z,1.97
2018-01-06T00:48:05.916Z,3.53
2018-01-06T00:53:09.525Z,3.33
2018-01-06T00:58:12.414Z,3.87
2018-01-06T01:03:18.444Z,4.67
2018-01-06T01:08:21.247Z,2.87
2018-01-06T01:13:27.761Z,5.73
2018-01-06T01:18:30.436Z,3.10
2018-01-06T01:23:34.285Z,3.83
2018-01-06T01:28:36.954Z,3.97
2018-01-06T01:33:39.712Z,3.17
2018-01-06T01:38:42.403Z,2.63
2018-01-06T01:43:45.789Z,3.27
2018-01-06T01:48:49.223Z,4.43
2018-01-06T01:53:52.736Z,4.03
2018-01-06T01:58:55.391Z,1.70
2018-01-06T02:03:58.666Z,3.73
2018-01-06T02:09:01.372Z,2.20
2018-01-06T02:14:04.573Z,2.77
2018-01-06T02:19:07.302Z,5.20
2018-01-06T02:24:10.171Z,2.97
2018-01-06T02:29:13.806Z,4.00
2018-01-06T02:34:17.211Z,2.87
2018-01-06T02:39:19.849Z,4.07
2018-01-06T02:44:23.450Z,2.83
2018-01-06T02:49:26.099Z,3.43
2018-01-06T02:54:30.276Z,3.47
2018-01-06T02:59:32.964Z,2.83
2018-01-06T03:04:35.940Z,2.73
2018-01-06T03:09:38.603Z,2.93
2018-01-06T03:14:41.675Z,3.00
2018-01-06T03:19:44.340Z,3.00
2018-01-06T03:24:47.078Z,2.87
2018-01-06T03:29:49.807Z,1.70
2018-01-06T03:34:53.296Z,2.37
2018-01-06T03:39:55.958Z,2.80
2018-01-06T03:44:59.619Z,1.97
2018-01-06T03:50:02.280Z,1.77
2018-01-06T03:55:07.478Z,1.63
2018-01-06T04:00:10.267Z,2.17
2018-01-06T04:05:15.044Z,2.47
2018-01-06T04:10:19.282Z,2.00
2018-01-06T04:15:26.585Z,2.00
2018-01-06T04:20:30.128Z,2.60
2018-01-06T04:25:35.298Z,2.40
2018-01-06T04:30:39.710Z,3.13
2018-01-06T04:35:45.693Z,2.27
2018-01-06T04:40:48.384Z,3.53
2018-01-06T04:45:55.756Z,2.40
2018-01-06T04:51:00.150Z,2.87
2018-01-06T04:56:04.582Z,3.17
2018-01-06T05:01:08.290Z,2.63
2018-01-06T05:06:19.587Z,5.67
2018-01-06T05:11:22.940Z,2.57
2018-01-06T05:16:29.708Z,2.67
2018-01-06T05:21:35.875Z,3.80
2018-01-06T05:26:40.402Z,3.17
2018-01-06T05:31:44.250Z,2.57
2018-01-06T05:36:49.202Z,4.37
2018-01-06T05:41:51.845Z,4.03
2018-01-06T05:46:55.144Z,2.57
2018-01-06T05:51:57.813Z,4.97
2018-01-06T05:57:01.466Z,5.47
2018-01-06T06:02:04.073Z,2.57
2018-01-06T06:07:06.791Z,3.00
2018-01-06T06:12:09.438Z,2.47
2018-01-06T06:17:12.646Z,4.27
2018-01-06T06:22:16.677Z,6.40
2018-01-06T06:27:19.946Z,4.03
2018-01-06T06:32:23.451Z,3.37
2018-01-06T06:37:26.682Z,5.23
2018-01-06T06:42:30.491Z,4.77
2018-01-06T06:47:33.761Z,3.40
2018-01-06T06:52:37.289Z,5.23
2018-01-06T06:57:41.492Z,7.17
2018-01-06T07:02:44.523Z,5.00
2018-01-06T07:07:49.150Z,4.63
2018-01-06T07:12:52.595Z,5.07
2018-01-06T07:17:55.441Z,4.73
2018-01-06T07:22:58.277Z,6.43
2018-01-06T07:28:01.409Z,4.27
2018-01-06T07:33:04.250Z,3.73
2018-01-06T07:38:08.082Z,6.07
2018-01-06T07:43:11.554Z,4.10
2018-01-06T07:48:15.105Z,5.17
2018-01-06T07:53:17.780Z,8.53
2018-01-06T07:58:20.990Z,4.87
2018-01-06T08:03:23.633Z,6.67
2018-01-06T08:08:27.754Z,5.73
2018-01-06T08:13:30.446Z,9.20
2018-01-06T08:18:33.127Z,5.57
2018-01-06T08:23:35.823Z,5.03
2018-01-06T08:28:39.200Z,6.10
2018-01-06T08:33:41.940Z,6.87
2018-01-06T08:38:45.761Z,4.03
2018-01-06T08:43:49.211Z,6.77
2018-01-06T08:48:53.235Z,9.10
2018-01-06T08:53:55.937Z,3.50
2018-01-06T08:58:59.382Z,6.63
2018-01-06T09:04:02.571Z,4.67
2018-01-06T09:09:05.951Z,6.33
2018-01-06T09:14:09.480Z,5.40
2018-01-06T09:19:12.830Z,7.17
2018-01-06T09:24:16.409Z,6.90
2018-01-06T09:29:19.517Z,8.30
2018-01-06T09:34:22.963Z,7.63
2018-01-06T09:39:26.285Z,4.30
2018-01-06T09:44:29.066Z,4.63
2018-01-06T09:49:31.966Z,9.60
2018-01-06T09:54:34.623Z,7.53
2018-01-06T09:59:38.045Z,5.87
2018-01-06T10:04:40.890Z,4.63
2018-01-06T10:09:43.703Z,6.47
2018-01-06T10:14:46.362Z,5.80
2018-01-06T10:19:49.451Z,6.90
2018-01-06T10:24:53.386Z,6.20
2018-01-06T10:29:57.861Z,5.80
2018-01-06T10:35:01.680Z,4.43
2018-01-06T10:40:05.937Z,4.07
2018-01-06T10:45:08.944Z,5.13
2018-01-06T10:50:12.569Z,4.20
2018-01-06T10:55:15.773Z,3.87
2018-01-06T11:00:20.928Z,4.83
2018-01-06T11:05:26.205Z,3.70
2018-01-06T11:10:29.920Z,4.57
2018-01-06T11:15:33.162Z,6.27
2018-01-06T11:20:36.035Z,6.47
2018-01-06T11:25:39.169Z,7.57
2018-01-06T11:30:42.159Z,7.37
2018-01-06T11:35:45.166Z,4.57
2018-01-06T11:40:48.786Z,27.93
2018-01-06T11:45:51.469Z,4.53
2018-01-06T11:50:55.696Z,5.83
2018-01-06T11:55:59.158Z,5.60
2018-01-06T12:01:02.051Z,4.20
2018-01-06T12:06:04.842Z,5.00
2018-01-06T12:11:07.644Z,5.43
2018-01-06T12:16:10.447Z,6.57
2018-01-06T12:21:14.175Z,6.07
2018-01-06T12:26:16.971Z,4.67
2018-01-06T12:31:21.332Z,7.23
2018-01-06T12:36:23.982Z,7.53
2018-01-06T12:41:27.649Z,10.27
2018-01-06T12:46:30.312Z,5.10
2018-01-06T12:51:33.189Z,5.33
2018-01-06T12:56:35.964Z,5.20
2018-01-06T13:01:39.093Z,5.70
2018-01-06T13:06:41.776Z,3.40
2018-01-06T13:11:44.645Z,6.93
2018-01-06T13:16:48.085Z,5.37
2018-01-06T13:21:51.711Z,4.97
2018-01-06T13:26:54.426Z,7.17
2018-01-06T13:31:57.329Z,6.77
2018-01-06T13:36:59.974Z,4.33
2018-01-06T13:42:03.216Z,4.37
2018-01-06T13:47:05.884Z,7.17
2018-01-06T13:52:09.178Z,5.63
2018-01-06T13:57:12.030Z,5.93
2018-01-06T14:02:14.955Z,6.60
2018-01-06T14:07:17.657Z,7.20
2018-01-06T14:12:21.279Z,6.20
2018-01-06T14:17:23.957Z,4.33
2018-01-06T14:22:26.695Z,10.60
2018-01-06T14:27:29.494Z,7.87
2018-01-06T14:32:33.209Z,7.97
2018-01-06T14:37:35.889Z,7.47
2018-01-06T14:42:39.542Z,5.97
2018-01-06T14:47:42.341Z,4.83
2018-01-06T14:52:45.233Z,6.17
2018-01-06T14:57:48.026Z,8.27
2018-01-06T15:02:51.433Z,10.27
2018-01-06T15:07:54.847Z,9.80
2018-01-06T15:12:59.107Z,9.07
2018-01-06T15:18:01.750Z,8.50
2018-01-06T15:23:05.231Z,7.87
2018-01-06T15:28:07.924Z,9.67
2018-01-06T15:33:10.811Z,9.23
2018-01-06T15:38:13.534Z,8.63
2018-01-06T15:43:16.336Z,10.50
2018-01-06T15:48:18.955Z,12.67
2018-01-06T15:53:22.576Z,10.23
2018-01-06T15:58:25.274Z,11.27
2018-01-06T16:03:27.970Z,8.60
2018-01-06T16:08:30.661Z,12.80
2018-01-06T16:13:33.881Z,21.63
2018-01-06T16:18:36.530Z,17.63
2018-01-06T16:23:40.742Z,16.27
2018-01-06T16:28:43.506Z,14.87
2018-01-06T16:33:47.003Z,13.83
2018-01-06T16:38:50.430Z,16.73
2018-01-06T16:43:53.541Z,18.30
2018-01-06T16:48:56.321Z,23.03
2018-01-06T16:53:59.271Z,17.50
2018-01-06T16:59:01.921Z,11.90
2018-01-06T17:04:06.284Z,14.00
2018-01-06T17:09:08.954Z,11.30
2018-01-06T17:14:12.495Z,13.43
2018-01-06T17:19:16.043Z,14.03
2018-01-06T17:24:19.514Z,44.70
2018-01-06T17:29:22.343Z,19.63
2018-01-06T17:34:25.429Z,14.37
2018-01-06T17:39:28.909Z,13.80
2018-01-06T17:44:32.247Z,13.77
2018-01-06T17:49:34.897Z,11.07
2018-01-06T17:54:38.502Z,12.77
2018-01-06T17:59:41.894Z,8.27
2018-01-06T18:04:45.231Z,12.93
2018-01-06T18:09:47.883Z,10.10
2018-01-06T18:14:50.732Z,12.57
2018-01-06T18:19:53.280Z,11.60
2018-01-06T18:24:56.655Z,13.17
2018-01-06T18:29:59.557Z,12.07
2018-01-06T18:35:03.114Z,17.23
2018-01-06T18:40:06.830Z,14.47
2018-01-06T18:45:10.381Z,12.77
2018-01-06T18:50:14.584Z,12.50
2018-01-06T18:55:17.934Z,13.50
2018-01-06T19:00:20.775Z,16.70
2018-01-06T19:05:23.866Z,17.17
2018-01-06T19:10:27.431Z,21.90
2018-01-06T19:15:30.722Z,22.67
2018-01-06T19:20:33.486Z,26.47
2018-01-06T19:25:36.476Z,20.70
2018-01-06T19:30:39.245Z,23.63
2018-01-06T19:35:42.514Z,19.37
2018-01-06T19:40:45.170Z,26.07
2018-01-06T19:45:48.867Z,24.60
2018-01-06T19:50:51.650Z,25.70
2018-01-06T19:55:55.643Z,21.00
2018-01-06T20:00:58.403Z,23.07
2018-01-06T20:06:02.045Z,19.87
2018-01-06T20:11:04.744Z,14.97
2018-01-06T20:16:08.252Z,20.93
2018-01-06T20:21:11.146Z,21.50
2018-01-06T20:26:14.775Z,18.70
2018-01-06T20:31:19.037Z,23.07
2018-01-06T20:36:22.382Z,23.23
2018-01-06T20:41:25.913Z,15.60
2018-01-06T20:46:28.832Z,27.07
2018-01-06T20:51:32.271Z,18.23
2018-01-06T20:56:35.596Z,21.27
2018-01-06T21:01:38.392Z,20.70
2018-01-06T21:06:41.100Z,25.33
2018-01-06T21:11:43.723Z,18.53
2018-01-06T21:16:47.201Z,16.43
2018-01-06T21:21:50.009Z,18.77
2018-01-06T21:26:53.442Z,18.77
2018-01-06T21:31:56.127Z,19.90
2018-01-06T21:36:59.371Z,17.07
2018-01-06T21:42:02.018Z,14.90
2018-01-06T21:47:06.439Z,15.03
2018-01-06T21:52:09.206Z,14.33
2018-01-06T21:57:12.900Z,13.80
2018-01-06T22:02:15.706Z,12.50
2018-01-06T22:07:19.338Z,15.13
2018-01-06T22:12:22.006Z,13.87
2018-01-06T22:17:25.582Z,14.33
2018-01-06T22:22:28.398Z,17.70
2018-01-06T22:27:31.458Z,16.27
2018-01-06T22:32:34.577Z,20.10
2018-01-06T22:37:39.010Z,18.27
2018-01-06T22:42:41.644Z,18.50
2018-01-06T22:47:45.102Z,17.40
2018-01-06T22:52:48.751Z,17.00
2018-01-06T22:57:52.061Z,16.47
2018-01-06T23:02:54.864Z,16.17
2018-01-06T23:07:58.525Z,15.50
2018-01-06T23:13:01.335Z,20.53
2018-01-06T23:18:04.949Z,16.57
2018-01-06T23:23:07.801Z,15.97
2018-01-06T23:28:12.258Z,16.83
2018-01-06T23:33:15.765Z,17.13
2018-01-06T23:38:19.646Z,22.20
2018-01-06T23:43:22.347Z,15.77
2018-01-06T23:48:25.693Z,17.47
2018-01-06T23:53:28.624Z,16.33
2018-01-06T23:58:32.074Z,22.77
